createdAt,value
2023-03-08T00:00:10.674Z,82.25
2023-03-08T00:03:02.878Z,83.74
2023-03-08T00:05:31.152Z,85.33
2023-03-08T00:07:59.474Z,82.88
2023-03-08T00:10:27.385Z,83.39
2023-03-08T00:12:55.299Z,84.49
2023-03-08T00:15:23.369Z,84.70
2023-03-08T00:17:51.598Z,84.17
2023-03-08T00:20:19.598Z,83.52
2023-03-08T00:22:47.772Z,85.78
2023-03-08T00:25:16.660Z,85.25
2023-03-08T00:27:44.820Z,85.72
2023-03-08T00:30:13.623Z,84.88
2023-03-08T00:32:41.938Z,85.35
2023-03-08T00:35:10.198Z,85.67
2023-03-08T00:37:40.078Z,85.43
2023-03-08T00:40:08.654Z,85.75
2023-03-08T00:42:36.639Z,88.43
2023-03-08T00:45:04.725Z,87.90
2023-03-08T00:47:32.721Z,86.56
2023-03-08T00:50:00.812Z,86.64
2023-03-08T00:52:29.537Z,87.40
2023-03-08T00:54:57.494Z,87.45
2023-03-08T00:57:26.120Z,87.75
2023-03-08T00:59:54.316Z,88.10
2023-03-08T01:02:23.067Z,88.26
2023-03-08T01:04:51.264Z,88.86
2023-03-08T01:07:19.930Z,89.10
2023-03-08T01:09:47.916Z,90.16
2023-03-08T01:12:16.579Z,89.51
2023-03-08T01:14:44.737Z,89.53
2023-03-08T01:17:14.753Z,90.70
2023-03-08T01:19:42.801Z,90.92
2023-03-08T01:22:11.139Z,91.55
2023-03-08T01:24:39.698Z,93.11
2023-03-08T01:27:07.672Z,92.05
2023-03-08T01:29:35.748Z,91.92
2023-03-08T01:32:03.883Z,91.82
2023-03-08T01:34:32.258Z,91.03
2023-03-08T01:37:00.291Z,90.50
2023-03-08T01:39:28.439Z,91.29
2023-03-08T01:41:56.670Z,93.05
2023-03-08T01:44:24.624Z,91.79
2023-03-08T01:46:53.749Z,91.52
2023-03-08T01:49:30.543Z,91.01
2023-03-08T01:52:01.899Z,91.21
2023-03-08T01:54:33.366Z,93.12
2023-03-08T01:57:22.053Z,92.75
2023-03-08T01:59:51.243Z,92.58
2023-03-08T02:02:23.212Z,92.14
2023-03-08T02:04:51.306Z,91.77
2023-03-08T02:07:19.316Z,91.81
2023-03-08T02:09:48.246Z,91.86
2023-03-08T02:12:16.284Z,93.47
2023-03-08T02:14:44.734Z,94.46
2023-03-08T02:17:12.711Z,93.45
2023-03-08T02:19:48.030Z,92.83
2023-03-08T02:22:17.244Z,92.49
2023-03-08T02:24:46.084Z,92.79
2023-03-08T02:27:17.590Z,94.23
2023-03-08T02:29:45.836Z,94.53
2023-03-08T02:32:14.172Z,94.21
2023-03-08T02:34:42.482Z,93.65
2023-03-08T02:37:10.534Z,92.72
2023-03-08T02:39:38.491Z,92.25
2023-03-08T02:42:06.545Z,92.95
2023-03-08T02:44:35.929Z,92.88
2023-03-08T02:47:04.057Z,93.65
2023-03-08T02:49:33.298Z,93.24
2023-03-08T02:52:01.576Z,93.45
2023-03-08T02:54:29.773Z,95.40
2023-03-08T02:56:57.824Z,95.12
2023-03-08T02:59:27.020Z,95.05
2023-03-08T03:01:55.911Z,97.76
2023-03-08T03:04:24.288Z,99.02
2023-03-08T03:06:52.359Z,98.03
2023-03-08T03:09:20.635Z,97.91
2023-03-08T03:11:48.913Z,97.61
2023-03-08T03:14:17.075Z,97.89
2023-03-08T03:16:45.560Z,97.24
2023-03-08T03:19:14.154Z,97.20
2023-03-08T03:21:42.268Z,96.75
2023-03-08T03:24:10.430Z,96.98
2023-03-08T03:26:50.941Z,97.61
2023-03-08T03:29:19.312Z,97.62
2023-03-08T03:31:50.361Z,99.29
2023-03-08T03:34:18.890Z,99.03
2023-03-08T03:36:47.751Z,98.30
2023-03-08T03:39:15.776Z,98.18
2023-03-08T03:41:44.715Z,98.27
2023-03-08T03:44:14.280Z,98.42
2023-03-08T03:46:43.293Z,98.61
2023-03-08T03:49:12.445Z,98.31
2023-03-08T03:51:41.747Z,98.07
2023-03-08T03:54:36.151Z,98.04
2023-03-08T03:57:04.480Z,99.73
2023-03-08T03:59:36.158Z,100.00
2023-03-08T04:02:04.567Z,99.90
2023-03-08T04:04:52.777Z,99.40
2023-03-08T04:07:24.050Z,99.98
2023-03-08T04:09:58.214Z,99.83
2023-03-08T04:12:26.760Z,99.55
2023-03-08T04:14:54.827Z,99.18
2023-03-08T04:17:23.420Z,98.50
2023-03-08T04:19:53.933Z,98.41
2023-03-08T04:22:22.745Z,98.03
2023-03-08T04:24:54.374Z,98.32
2023-03-08T04:27:30.673Z,98.48
2023-03-08T04:29:58.643Z,99.24
2023-03-08T04:32:27.479Z,99.58
2023-03-08T04:34:58.030Z,99.93
2023-03-08T04:37:28.272Z,100.00
2023-03-08T04:40:01.153Z,100.00
2023-03-08T04:42:30.561Z,100.00
2023-03-08T04:44:58.915Z,100.00
2023-03-08T04:47:27.106Z,100.00
2023-03-08T04:49:55.063Z,100.00
2023-03-08T04:52:24.086Z,100.00
2023-03-08T04:54:53.222Z,100.00
2023-03-08T04:57:23.737Z,100.00
2023-03-08T04:59:53.666Z,100.00
2023-03-08T05:02:23.254Z,100.00
2023-03-08T05:04:51.877Z,100.00
2023-03-08T05:07:19.884Z,100.00
2023-03-08T05:09:48.399Z,100.00
2023-03-08T05:12:16.517Z,100.00
2023-03-08T05:14:51.093Z,100.00
2023-03-08T05:17:19.218Z,100.00
2023-03-08T05:19:47.260Z,100.00
2023-03-08T05:22:18.727Z,100.00
2023-03-08T05:24:51.107Z,100.00
2023-03-08T05:27:19.511Z,100.00
2023-03-08T05:29:52.088Z,100.00
2023-03-08T05:32:20.835Z,100.00
2023-03-08T05:34:50.565Z,100.00
2023-03-08T05:37:27.541Z,100.00
2023-03-08T05:39:57.184Z,100.00
2023-03-08T05:42:27.504Z,100.00
2023-03-08T05:44:56.541Z,100.00
2023-03-08T05:47:30.457Z,100.00
2023-03-08T05:49:58.505Z,100.00
2023-03-08T05:52:26.780Z,100.00
2023-03-08T05:54:55.224Z,100.00
2023-03-08T05:57:23.671Z,100.00
2023-03-08T05:59:52.079Z,100.00
2023-03-08T06:02:22.798Z,98.50
2023-03-08T06:04:54.193Z,93.65
2023-03-08T06:07:24.271Z,85.54
2023-03-08T06:10:07.192Z,80.09
2023-03-08T06:12:35.515Z,74.99
2023-03-08T06:15:06.049Z,69.60
2023-03-08T06:17:36.653Z,64.86
2023-03-08T06:20:04.960Z,60.13
2023-03-08T06:22:34.041Z,57.32
2023-03-08T06:25:03.285Z,55.68
2023-03-08T06:27:34.980Z,54.91
2023-03-08T06:30:06.617Z,55.39
2023-03-08T06:32:36.225Z,54.86
2023-03-08T06:35:04.782Z,54.19
2023-03-08T06:37:34.445Z,53.66
2023-03-08T06:40:03.837Z,53.67
2023-03-08T06:42:41.091Z,53.83
2023-03-08T06:45:10.989Z,54.60
2023-03-08T06:47:39.305Z,54.19
2023-03-08T06:50:08.169Z,55.25
2023-03-08T06:52:38.428Z,56.03
2023-03-08T06:55:07.543Z,56.24
2023-03-08T06:57:35.810Z,56.83
2023-03-08T07:00:04.450Z,57.30
2023-03-08T07:02:32.405Z,58.09
2023-03-08T07:05:00.415Z,56.69
2023-03-08T07:07:28.480Z,56.59
2023-03-08T07:09:58.076Z,56.95
2023-03-08T07:12:26.201Z,55.81
2023-03-08T07:14:54.217Z,55.92
2023-03-08T07:17:22.251Z,55.58
2023-03-08T07:19:50.484Z,55.27
2023-03-08T07:22:18.590Z,55.40
2023-03-08T07:24:49.694Z,56.39
2023-03-08T07:27:18.237Z,57.30
2023-03-08T07:29:46.253Z,55.60
2023-03-08T07:32:14.375Z,52.54
2023-03-08T07:34:42.693Z,51.05
2023-03-08T07:37:14.893Z,48.71
2023-03-08T07:39:43.217Z,46.26
2023-03-08T07:42:11.683Z,44.79
2023-03-08T07:44:39.949Z,44.02
2023-03-08T07:47:08.721Z,42.74
2023-03-08T07:49:37.153Z,41.33
2023-03-08T07:52:05.768Z,41.56
2023-03-08T07:54:33.879Z,40.28
2023-03-08T07:57:03.184Z,40.29
2023-03-08T07:59:31.324Z,39.67
2023-03-08T08:01:59.576Z,39.22
2023-03-08T08:04:27.544Z,39.48
2023-03-08T08:06:55.755Z,38.90
2023-03-08T08:09:25.247Z,39.18
2023-03-08T08:11:53.277Z,38.76
2023-03-08T08:14:21.455Z,38.48
2023-03-08T08:16:49.513Z,38.25
2023-03-08T08:19:18.233Z,38.79
2023-03-08T08:21:46.775Z,38.46
2023-03-08T08:24:15.075Z,38.98
2023-03-08T08:26:43.035Z,38.76
2023-03-08T08:29:11.175Z,38.08
2023-03-08T08:31:39.422Z,38.36
2023-03-08T08:34:07.775Z,38.63
2023-03-08T08:36:35.725Z,39.12
2023-03-08T08:39:04.594Z,38.05
2023-03-08T08:41:32.676Z,38.30
2023-03-08T08:44:00.775Z,38.14
2023-03-08T08:46:29.069Z,37.60
2023-03-08T08:48:58.194Z,38.16
2023-03-08T08:51:26.354Z,37.98
2023-03-08T08:53:54.876Z,36.76
2023-03-08T08:56:27.672Z,37.03
2023-03-08T08:58:59.423Z,36.58
2023-03-08T09:01:29.089Z,37.47
2023-03-08T09:03:57.197Z,37.66
2023-03-08T09:06:25.744Z,37.48
2023-03-08T09:08:55.156Z,37.02
2023-03-08T09:11:23.961Z,37.46
2023-03-08T09:13:52.446Z,38.15
2023-03-08T09:16:22.506Z,38.35
2023-03-08T09:18:51.158Z,39.18
2023-03-08T09:21:19.338Z,39.50
2023-03-08T09:23:47.465Z,40.23
2023-03-08T09:26:15.488Z,38.88
2023-03-08T09:28:43.514Z,38.27
2023-03-08T09:31:15.157Z,38.66
2023-03-08T09:33:48.487Z,38.49
2023-03-08T09:36:16.695Z,38.41
2023-03-08T09:38:46.764Z,39.05
2023-03-08T09:41:25.906Z,39.24
2023-03-08T09:44:03.894Z,39.17
2023-03-08T09:46:38.731Z,39.53
2023-03-08T09:49:12.693Z,39.52
2023-03-08T09:51:43.202Z,40.02
2023-03-08T09:54:14.043Z,40.23
2023-03-08T09:56:52.684Z,40.26
2023-03-08T09:59:24.543Z,40.57
2023-03-08T10:01:52.595Z,40.51
2023-03-08T10:04:37.678Z,40.95
2023-03-08T10:07:17.175Z,41.03
2023-03-08T10:10:03.993Z,40.91
2023-03-08T10:12:51.249Z,40.36
2023-03-08T10:15:23.344Z,40.09
2023-03-08T10:17:57.785Z,40.23
2023-03-08T10:20:27.345Z,40.34
2023-03-08T10:23:03.062Z,40.96
2023-03-08T10:25:34.155Z,40.37
2023-03-08T10:28:03.858Z,40.25
2023-03-08T10:30:36.537Z,39.69
2023-03-08T10:33:06.996Z,39.50
2023-03-08T10:35:37.797Z,39.65
2023-03-08T10:38:15.152Z,40.00
2023-03-08T10:40:43.249Z,39.43
2023-03-08T10:43:37.775Z,39.35
2023-03-08T10:46:16.238Z,37.88
2023-03-08T10:48:44.712Z,37.33
2023-03-08T10:51:20.599Z,36.53
2023-03-08T10:53:59.837Z,36.10
2023-03-08T10:56:27.844Z,36.12
2023-03-08T10:58:57.413Z,34.98
2023-03-08T11:01:25.481Z,35.50
2023-03-08T11:04:02.834Z,35.89
2023-03-08T11:06:31.388Z,35.27
2023-03-08T11:09:01.039Z,35.33
2023-03-08T11:11:29.117Z,34.02
2023-03-08T11:13:57.590Z,34.11
2023-03-08T11:16:44.591Z,34.22
2023-03-08T11:19:32.591Z,34.07
2023-03-08T11:22:06.443Z,33.38
2023-03-08T11:24:34.700Z,33.15
2023-03-08T11:27:17.592Z,33.39
2023-03-08T11:29:45.546Z,32.89
2023-03-08T11:32:16.643Z,32.22
2023-03-08T11:34:47.620Z,32.45
2023-03-08T11:37:24.502Z,32.39
2023-03-08T11:40:15.807Z,31.67
2023-03-08T11:42:56.071Z,31.98
2023-03-08T11:45:24.116Z,32.04
2023-03-08T11:47:59.237Z,31.52
2023-03-08T11:50:33.820Z,30.47
2023-03-08T11:53:21.576Z,30.03
2023-03-08T11:55:52.600Z,29.78
2023-03-08T11:58:24.577Z,30.04
2023-03-08T12:00:55.412Z,30.21
2023-03-08T12:03:25.622Z,30.60
2023-03-08T12:05:56.361Z,30.25
2023-03-08T12:08:28.861Z,29.88
2023-03-08T12:10:57.125Z,30.03
2023-03-08T12:13:36.752Z,29.99
2023-03-08T12:16:23.815Z,29.54
2023-03-08T12:18:54.976Z,29.08
2023-03-08T12:21:42.474Z,29.12
2023-03-08T12:24:29.602Z,28.63
2023-03-08T12:27:06.501Z,28.52
2023-03-08T12:29:54.746Z,28.27
2023-03-08T12:32:23.589Z,28.48
2023-03-08T12:35:21.273Z,28.33
2023-03-08T12:38:01.837Z,28.51
2023-03-08T12:40:44.418Z,28.51
2023-03-08T12:43:21.956Z,29.18
2023-03-08T12:45:59.529Z,29.20
2023-03-08T12:48:37.826Z,29.20
2023-03-08T12:51:20.739Z,29.18
2023-03-08T12:53:51.804Z,29.26
2023-03-08T12:56:49.682Z,29.07
2023-03-08T12:59:17.593Z,28.31
2023-03-08T13:01:46.856Z,28.59
2023-03-08T13:04:41.381Z,28.73
2023-03-08T13:07:30.380Z,28.66
2023-03-08T13:10:24.825Z,28.33
2023-03-08T13:13:37.570Z,28.38
2023-03-08T13:16:07.422Z,28.80
2023-03-08T13:18:37.097Z,28.93
2023-03-08T13:21:14.339Z,29.09
2023-03-08T13:23:52.189Z,29.04
2023-03-08T13:26:20.275Z,28.73
2023-03-08T13:28:49.032Z,29.00
2023-03-08T13:31:19.153Z,28.87
2023-03-08T13:33:49.374Z,28.31
2023-03-08T13:36:20.530Z,28.07
2023-03-08T13:38:56.131Z,27.90
2023-03-08T13:41:39.356Z,28.21
2023-03-08T13:44:14.299Z,28.27
2023-03-08T13:46:43.294Z,28.31
2023-03-08T13:49:19.252Z,28.30
2023-03-08T13:51:49.337Z,28.21
2023-03-08T13:54:24.986Z,28.25
2023-03-08T13:56:54.480Z,28.65
2023-03-08T13:59:23.243Z,28.97
2023-03-08T14:01:51.847Z,28.90
2023-03-08T14:04:21.834Z,28.61
2023-03-08T14:06:50.957Z,28.68
2023-03-08T14:09:19.687Z,28.92
2023-03-08T14:11:55.992Z,29.02
2023-03-08T14:14:29.331Z,28.82
2023-03-08T14:16:58.093Z,28.70
2023-03-08T14:19:28.185Z,28.64
2023-03-08T14:21:58.062Z,28.57
2023-03-08T14:24:27.894Z,29.05
2023-03-08T14:27:03.743Z,28.95
2023-03-08T14:29:35.902Z,28.88
2023-03-08T14:32:04.713Z,29.33
2023-03-08T14:34:36.558Z,29.30
2023-03-08T14:37:06.354Z,29.86
2023-03-08T14:39:35.824Z,29.79
2023-03-08T14:42:22.373Z,29.53
2023-03-08T14:44:51.693Z,30.08
2023-03-08T14:47:22.191Z,30.22
2023-03-08T14:50:01.721Z,30.31
2023-03-08T14:52:35.576Z,30.28
2023-03-08T14:55:17.218Z,30.70
2023-03-08T14:57:45.262Z,31.17
2023-03-08T15:00:15.709Z,31.34
2023-03-08T15:02:43.866Z,31.74
2023-03-08T15:05:28.058Z,31.89
2023-03-08T15:07:59.486Z,31.94
2023-03-08T15:10:29.768Z,32.16
2023-03-08T15:12:57.728Z,32.49
2023-03-08T15:15:25.836Z,32.64
2023-03-08T15:17:53.995Z,32.75
2023-03-08T15:20:23.479Z,33.02
2023-03-08T15:22:53.814Z,33.20
2023-03-08T15:25:29.606Z,33.33
2023-03-08T15:27:57.659Z,33.48
2023-03-08T15:30:26.956Z,33.53
2023-03-08T15:32:58.409Z,33.76
2023-03-08T15:35:27.547Z,33.90
2023-03-08T15:37:55.485Z,34.09
2023-03-08T15:40:28.130Z,34.26
2023-03-08T15:42:56.712Z,34.40
2023-03-08T15:45:25.000Z,34.59
2023-03-08T15:47:59.253Z,34.75
2023-03-08T15:50:27.313Z,34.86
2023-03-08T15:52:56.083Z,34.99
2023-03-08T15:55:25.695Z,35.24
2023-03-08T15:57:54.169Z,35.31
2023-03-08T16:00:23.271Z,35.50
2023-03-08T16:02:53.948Z,35.60
2023-03-08T16:05:24.243Z,35.88
2023-03-08T16:07:56.408Z,35.96
2023-03-08T16:10:24.457Z,36.27
2023-03-08T16:12:53.335Z,36.58
2023-03-08T16:15:21.838Z,36.78
2023-03-08T16:17:49.858Z,36.89
2023-03-08T16:20:17.868Z,37.20
2023-03-08T16:22:45.910Z,37.13
2023-03-08T16:25:14.119Z,37.68
2023-03-08T16:27:42.169Z,37.73
2023-03-08T16:30:11.449Z,38.01
2023-03-08T16:32:39.516Z,38.09
2023-03-08T16:35:07.930Z,38.33
2023-03-08T16:37:36.155Z,38.62
2023-03-08T16:40:06.199Z,38.87
2023-03-08T16:42:34.284Z,39.14
2023-03-08T16:45:02.396Z,39.35
2023-03-08T16:47:33.584Z,39.37
2023-03-08T16:50:02.172Z,39.66
2023-03-08T16:52:30.164Z,39.79
2023-03-08T16:54:58.176Z,39.92
2023-03-08T16:57:27.209Z,39.83
2023-03-08T16:59:55.213Z,40.00
2023-03-08T17:02:23.471Z,40.07
2023-03-08T17:04:51.528Z,40.37
2023-03-08T17:07:19.393Z,40.47
2023-03-08T17:09:47.323Z,40.49
2023-03-08T17:12:15.448Z,40.98
2023-03-08T17:14:44.723Z,41.13
2023-03-08T17:17:13.811Z,41.10
2023-03-08T17:19:42.204Z,41.30
2023-03-08T17:22:10.229Z,41.15
2023-03-08T17:24:38.534Z,41.25
2023-03-08T17:27:06.595Z,41.56
2023-03-08T17:29:35.464Z,41.87
2023-03-08T17:32:03.508Z,42.10
2023-03-08T17:34:31.457Z,42.39
2023-03-08T17:36:59.392Z,42.43
2023-03-08T17:39:27.448Z,42.34
2023-03-08T17:41:55.830Z,42.53
2023-03-08T17:44:23.880Z,42.82
2023-03-08T17:46:51.894Z,42.57
2023-03-08T17:49:24.908Z,42.58
2023-03-08T17:51:53.341Z,42.70
2023-03-08T17:54:21.540Z,42.77
2023-03-08T17:56:49.810Z,42.62
2023-03-08T17:59:18.003Z,42.85
2023-03-08T18:01:46.256Z,43.10
2023-03-08T18:04:14.431Z,42.93
2023-03-08T18:06:43.201Z,43.28
2023-03-08T18:09:12.810Z,43.48
2023-03-08T18:11:41.631Z,43.62
2023-03-08T18:14:11.629Z,43.82
2023-03-08T18:16:40.520Z,43.68
2023-03-08T18:19:08.681Z,43.92
2023-03-08T18:21:39.287Z,44.09
2023-03-08T18:24:12.306Z,44.55
2023-03-08T18:26:40.662Z,44.65
2023-03-08T18:29:08.771Z,44.51
2023-03-08T18:31:37.440Z,44.41
2023-03-08T18:34:06.559Z,44.35
2023-03-08T18:36:35.319Z,44.38
2023-03-08T18:39:04.826Z,44.69
2023-03-08T18:41:33.746Z,44.67
2023-03-08T18:44:01.997Z,44.67
2023-03-08T18:46:31.152Z,44.45
2023-03-08T18:49:03.782Z,44.59
2023-03-08T18:51:32.865Z,44.52
2023-03-08T18:54:01.038Z,44.27
2023-03-08T18:56:30.238Z,44.25
2023-03-08T18:58:59.744Z,44.20
2023-03-08T19:01:30.582Z,44.12
2023-03-08T19:03:59.682Z,44.18
2023-03-08T19:06:27.960Z,44.40
2023-03-08T19:08:57.002Z,44.53
2023-03-08T19:11:26.658Z,44.29
2023-03-08T19:13:55.188Z,44.34
2023-03-08T19:16:23.384Z,44.30
2023-03-08T19:18:54.109Z,44.11
2023-03-08T19:21:27.554Z,44.08
2023-03-08T19:23:55.928Z,44.14
2023-03-08T19:26:37.696Z,44.58
2023-03-08T19:29:05.951Z,44.71
2023-03-08T19:31:35.482Z,44.58
2023-03-08T19:34:05.230Z,44.51
2023-03-08T19:36:35.503Z,44.52
2023-03-08T19:39:05.458Z,44.30
2023-03-08T19:41:33.655Z,44.48
2023-03-08T19:44:07.157Z,44.47
2023-03-08T19:46:35.921Z,44.45
2023-03-08T19:49:05.528Z,44.58
2023-03-08T19:51:34.010Z,44.73
2023-03-08T19:54:03.212Z,44.87
2023-03-08T19:56:31.181Z,45.09
2023-03-08T19:58:59.970Z,45.31
2023-03-08T20:01:28.407Z,45.61
2023-03-08T20:03:56.520Z,45.79
2023-03-08T20:06:36.076Z,45.52
2023-03-08T20:09:05.272Z,45.75
2023-03-08T20:11:34.157Z,45.62
2023-03-08T20:14:02.270Z,45.73
2023-03-08T20:16:31.262Z,45.59
2023-03-08T20:18:59.788Z,46.13
2023-03-08T20:21:30.018Z,46.08
2023-03-08T20:23:59.712Z,46.08
2023-03-08T20:26:29.646Z,46.11
2023-03-08T20:28:58.134Z,46.13
2023-03-08T20:31:27.230Z,46.06
2023-03-08T20:33:56.623Z,46.04
2023-03-08T20:36:25.024Z,46.04
2023-03-08T20:38:53.283Z,46.00
2023-03-08T20:41:24.094Z,46.01
2023-03-08T20:43:55.610Z,46.19
2023-03-08T20:46:27.628Z,46.17
2023-03-08T20:48:56.834Z,46.19
2023-03-08T20:51:25.424Z,46.28
2023-03-08T20:53:54.692Z,46.36
2023-03-08T20:56:24.156Z,46.70
2023-03-08T20:58:54.913Z,46.84
2023-03-08T21:01:24.828Z,46.89
2023-03-08T21:03:53.121Z,46.95
2023-03-08T21:06:26.056Z,47.09
2023-03-08T21:08:54.216Z,47.35
2023-03-08T21:11:22.713Z,47.30
2023-03-08T21:13:51.725Z,47.45
2023-03-08T21:16:21.310Z,47.46
2023-03-08T21:18:52.978Z,47.63
2023-03-08T21:21:30.361Z,48.04
2023-03-08T21:23:59.907Z,48.84
2023-03-08T21:26:28.856Z,48.53
2023-03-08T21:28:58.243Z,48.61
2023-03-08T21:31:26.896Z,48.69
2023-03-08T21:33:57.758Z,48.56
2023-03-08T21:36:26.140Z,48.87
2023-03-08T21:38:55.338Z,48.94
2023-03-08T21:41:25.255Z,48.80
2023-03-08T21:43:53.945Z,48.95
2023-03-08T21:46:22.265Z,49.26
2023-03-08T21:48:50.599Z,49.15
2023-03-08T21:51:20.750Z,49.31
2023-03-08T21:53:49.194Z,49.48
2023-03-08T21:56:18.515Z,49.61
2023-03-08T21:58:46.576Z,50.10
2023-03-08T22:01:22.776Z,50.55
2023-03-08T22:03:51.308Z,50.66
2023-03-08T22:06:19.794Z,50.64
2023-03-08T22:08:48.389Z,50.96
2023-03-08T22:11:17.279Z,51.61
2023-03-08T22:13:49.336Z,51.94
2023-03-08T22:16:17.420Z,51.60
2023-03-08T22:18:45.682Z,51.84
2023-03-08T22:21:14.166Z,52.45
2023-03-08T22:23:42.746Z,52.45
2023-03-08T22:26:11.200Z,52.05
2023-03-08T22:28:39.200Z,52.33
2023-03-08T22:31:14.175Z,51.83
2023-03-08T22:33:42.412Z,51.93
2023-03-08T22:36:11.845Z,52.03
2023-03-08T22:38:40.719Z,52.44
2023-03-08T22:41:10.664Z,52.77
2023-03-08T22:43:39.413Z,52.51
2023-03-08T22:46:09.210Z,52.62
2023-03-08T22:48:37.707Z,52.59
2023-03-08T22:51:11.006Z,52.70
2023-03-08T22:53:40.713Z,52.12
2023-03-08T22:56:16.767Z,52.10
2023-03-08T22:58:44.958Z,53.00
2023-03-08T23:01:15.002Z,53.11
2023-03-08T23:03:43.554Z,53.33
2023-03-08T23:06:12.139Z,53.79
2023-03-08T23:08:40.201Z,53.52
2023-03-08T23:11:09.806Z,53.59
2023-03-08T23:13:38.185Z,53.66
2023-03-08T23:16:09.414Z,53.17
2023-03-08T23:18:38.427Z,53.18
2023-03-08T23:21:07.623Z,52.96
2023-03-08T23:23:36.313Z,52.24
2023-03-08T23:26:05.517Z,52.46
2023-03-08T23:28:36.727Z,52.79
2023-03-08T23:31:08.710Z,53.00
2023-03-08T23:33:36.906Z,52.76
2023-03-08T23:36:05.425Z,53.01
2023-03-08T23:38:33.648Z,53.12
2023-03-08T23:41:06.604Z,53.16
2023-03-08T23:43:35.322Z,53.25
2023-03-08T23:46:07.946Z,53.76
2023-03-08T23:48:36.186Z,54.29
2023-03-08T23:51:05.807Z,54.31
2023-03-08T23:53:33.985Z,54.39
2023-03-08T23:56:02.342Z,54.92
2023-03-08T23:58:30.706Z,54.93
